createdAt,value
2017-03-27T00:02:16.815Z,86.67
2017-03-27T00:07:14.614Z,86.86
2017-03-27T00:12:10.842Z,86.95
2017-03-27T00:17:07.778Z,87.14
2017-03-27T00:22:04.466Z,86.95
2017-03-27T00:32:01.513Z,86.76
2017-03-27T00:36:58.877Z,86.67
2017-03-27T00:41:55.136Z,86.47
2017-03-27T00:46:51.500Z,87.24
2017-03-27T00:51:48.178Z,86.67
2017-03-27T00:56:44.620Z,86.00
2017-03-27T01:01:40.619Z,86.57
2017-03-27T01:06:37.154Z,87.01
2017-03-27T01:11:33.582Z,86.29
2017-03-27T01:16:30.439Z,86.53
2017-03-27T01:21:26.722Z,86.24
2017-03-27T01:26:23.640Z,86.72
2017-03-27T01:31:20.942Z,86.15
2017-03-27T01:36:19.042Z,86.43
2017-03-27T01:41:14.782Z,86.15
2017-03-27T01:46:11.660Z,85.49
2017-03-27T01:51:08.200Z,86.24
2017-03-27T01:56:05.581Z,86.53
2017-03-27T02:01:01.635Z,86.34
2017-03-27T02:05:58.755Z,86.63
2017-03-27T02:10:56.333Z,85.96
2017-03-27T02:15:52.631Z,85.96
2017-03-27T02:20:49.186Z,85.96
2017-03-27T02:25:45.622Z,85.77
2017-03-27T02:30:42.166Z,85.77
2017-03-27T02:35:38.327Z,85.86
2017-03-27T02:40:34.887Z,85.58
2017-03-27T02:45:31.266Z,85.77
2017-03-27T02:50:28.005Z,85.58
2017-03-27T03:00:29.065Z,85.72
2017-03-27T03:05:25.339Z,85.72
2017-03-27T03:10:21.925Z,85.72
2017-03-27T03:15:21.663Z,86.20
2017-03-27T03:20:18.165Z,86.30
2017-03-27T03:25:14.707Z,85.91
2017-03-27T03:30:11.023Z,86.39
2017-03-27T03:35:08.190Z,86.39
2017-03-27T03:40:04.750Z,85.82
2017-03-27T03:45:01.985Z,85.53
2017-03-27T03:49:58.570Z,85.25
2017-03-27T03:54:55.407Z,85.16
2017-03-27T03:59:52.054Z,85.68
2017-03-27T04:04:49.649Z,85.44
2017-03-27T04:09:45.854Z,85.82
2017-03-27T04:14:42.389Z,85.53
2017-03-27T04:19:38.851Z,85.59
2017-03-27T04:24:35.549Z,85.49
2017-03-27T04:29:31.990Z,86.25
2017-03-27T04:34:30.529Z,86.16
2017-03-27T04:39:26.678Z,86.35
2017-03-27T04:44:22.935Z,86.16
2017-03-27T04:49:19.976Z,86.16
2017-03-27T04:54:16.568Z,85.59
2017-03-27T04:59:13.590Z,85.68
2017-03-27T05:04:10.756Z,85.68
2017-03-27T05:09:07.013Z,86.44
2017-03-27T05:14:03.432Z,85.40
2017-03-27T05:18:59.797Z,85.68
2017-03-27T05:23:56.816Z,85.78
2017-03-27T05:28:53.411Z,85.78
2017-03-27T05:33:49.891Z,86.54
2017-03-27T05:38:46.251Z,86.16
2017-03-27T05:43:42.707Z,86.16
2017-03-27T05:48:40.071Z,85.68
2017-03-27T05:53:36.794Z,84.64
2017-03-27T05:58:33.448Z,84.64
2017-03-27T06:03:31.947Z,83.07
2017-03-27T06:08:28.067Z,83.26
2017-03-27T06:13:24.583Z,82.69
2017-03-27T06:18:20.985Z,83.07
2017-03-27T06:23:17.965Z,83.64
2017-03-27T06:28:15.643Z,82.26
2017-03-27T06:33:12.485Z,80.64
2017-03-27T06:38:10.006Z,79.35
2017-03-27T06:43:06.765Z,78.40
2017-03-27T06:48:03.464Z,77.20
2017-03-27T06:53:01.641Z,75.62
2017-03-27T06:57:59.315Z,75.24
2017-03-27T07:02:56.509Z,72.42
2017-03-27T07:07:54.210Z,70.62
2017-03-27T07:12:50.960Z,71.57
2017-03-27T07:17:47.602Z,69.32
2017-03-27T07:22:44.180Z,70.52
2017-03-27T07:27:40.661Z,69.85
2017-03-27T07:32:37.057Z,71.00
2017-03-27T07:37:33.740Z,67.70
2017-03-27T07:42:31.159Z,67.67
2017-03-27T07:47:28.015Z,66.94
2017-03-27T07:52:25.010Z,65.26
2017-03-27T07:57:21.576Z,63.73
2017-03-27T08:02:18.557Z,62.52
2017-03-27T08:07:15.287Z,60.91
2017-03-27T08:12:12.159Z,60.17
2017-03-27T08:17:08.819Z,58.84
2017-03-27T08:22:06.523Z,56.46
2017-03-27T08:27:03.320Z,55.53
2017-03-27T08:32:00.131Z,54.96
2017-03-27T08:36:57.093Z,55.82
2017-03-27T08:41:53.898Z,55.82
2017-03-27T08:46:50.139Z,56.29
2017-03-27T08:51:46.478Z,55.72
2017-03-27T08:56:42.576Z,56.29
2017-03-27T09:01:38.998Z,56.20
2017-03-27T09:06:35.600Z,56.38
2017-03-27T09:11:32.021Z,56.77
2017-03-27T09:16:29.534Z,56.13
2017-03-27T09:21:25.681Z,54.48
2017-03-27T09:26:22.142Z,53.74
2017-03-27T09:31:18.664Z,51.17
2017-03-27T09:36:15.448Z,52.22
2017-03-27T09:41:13.113Z,49.85
2017-03-27T09:46:10.663Z,47.49
2017-03-27T09:51:07.760Z,45.77
2017-03-27T09:56:05.701Z,46.34
2017-03-27T10:01:02.660Z,45.70
2017-03-27T10:06:00.142Z,43.71
2017-03-27T10:10:56.822Z,44.86
2017-03-27T10:15:53.357Z,44.69
2017-03-27T10:20:50.286Z,41.63
2017-03-27T10:25:47.462Z,41.63
2017-03-27T10:30:44.752Z,41.53
2017-03-27T10:35:41.897Z,41.09
2017-03-27T10:40:39.586Z,40.31
2017-03-27T10:45:35.823Z,41.15
2017-03-27T10:50:32.002Z,41.17
2017-03-27T10:55:29.339Z,39.37
2017-03-27T11:00:27.767Z,36.55
2017-03-27T11:05:25.146Z,34.63
2017-03-27T11:10:22.859Z,35.10
2017-03-27T11:15:21.069Z,36.42
2017-03-27T11:20:18.886Z,34.61
2017-03-27T11:25:15.846Z,35.17
2017-03-27T11:30:13.387Z,32.82
2017-03-27T11:35:10.686Z,31.96
2017-03-27T11:40:08.087Z,29.48
2017-03-27T11:45:07.608Z,26.04
2017-03-27T11:50:04.647Z,24.01
2017-03-27T11:55:02.619Z,25.64
2017-03-27T11:59:59.050Z,27.09
2017-03-27T12:04:55.923Z,26.05
2017-03-27T12:09:52.827Z,25.76
2017-03-27T12:14:49.535Z,25.82
2017-03-27T12:19:46.062Z,26.97
2017-03-27T12:24:42.979Z,26.03
2017-03-27T12:29:41.954Z,26.71
2017-03-27T12:34:38.225Z,27.19
2017-03-27T12:39:33.875Z,27.17
2017-03-27T12:44:30.116Z,27.64
2017-03-27T12:49:26.929Z,29.85
2017-03-27T12:54:23.355Z,28.89
2017-03-27T12:59:18.403Z,28.03
2017-03-27T13:04:15.707Z,28.70
2017-03-27T13:09:12.177Z,28.22
2017-03-27T13:14:08.436Z,29.75
2017-03-27T13:19:05.300Z,30.89
2017-03-27T13:24:02.222Z,33.62
2017-03-27T13:29:00.977Z,28.81
2017-03-27T13:39:03.256Z,30.22
2017-03-27T13:43:59.503Z,31.29
2017-03-27T13:48:56.107Z,30.01
2017-03-27T13:53:53.452Z,30.58
2017-03-27T13:58:54.046Z,31.85
2017-03-27T14:03:49.705Z,29.83
2017-03-27T14:08:46.843Z,29.74
2017-03-27T14:13:43.801Z,29.55
2017-03-27T14:18:40.060Z,31.08
2017-03-27T14:23:36.868Z,29.16
2017-03-27T14:28:33.135Z,30.70
2017-03-27T14:33:29.756Z,31.20
2017-03-27T14:38:26.863Z,30.90
2017-03-27T14:43:23.979Z,30.44
2017-03-27T14:48:21.063Z,31.02
2017-03-27T14:53:18.033Z,30.62
2017-03-27T14:58:14.944Z,31.95
2017-03-27T15:03:11.396Z,32.89
2017-03-27T15:08:07.244Z,34.14
2017-03-27T15:13:03.228Z,33.94
2017-03-27T15:17:59.152Z,32.03
2017-03-27T15:22:55.392Z,33.56
2017-03-27T15:27:51.562Z,33.47
2017-03-27T15:32:48.102Z,32.79
2017-03-27T15:37:44.858Z,34.90
2017-03-27T15:42:41.824Z,32.98
2017-03-27T15:47:38.197Z,33.37
2017-03-27T15:52:34.443Z,35.00
2017-03-27T15:57:31.649Z,34.50
2017-03-27T16:02:27.700Z,34.59
2017-03-27T16:07:24.555Z,34.31
2017-03-27T16:12:21.146Z,34.71
2017-03-27T16:17:17.666Z,34.31
2017-03-27T16:22:14.690Z,34.12
2017-03-27T16:27:12.017Z,34.22
2017-03-27T16:32:08.561Z,33.83
2017-03-27T16:37:05.825Z,33.64
2017-03-27T16:42:02.330Z,33.64
2017-03-27T16:46:58.656Z,32.78
2017-03-27T16:51:56.000Z,33.45
2017-03-27T16:56:52.613Z,34.31
2017-03-27T17:01:49.308Z,34.39
2017-03-27T17:06:45.928Z,33.53
2017-03-27T17:11:42.421Z,34.00
2017-03-27T17:16:39.473Z,35.06
2017-03-27T17:21:36.597Z,42.91
2017-03-27T17:26:33.440Z,35.53
2017-03-27T17:31:29.999Z,35.35
2017-03-27T17:36:26.250Z,35.33
2017-03-27T17:41:23.357Z,35.71
2017-03-27T17:46:20.171Z,36.96
2017-03-27T17:51:16.301Z,36.10
2017-03-27T17:56:12.933Z,36.17
2017-03-27T18:01:09.318Z,36.36
2017-03-27T18:06:05.778Z,36.36
2017-03-27T18:11:01.844Z,38.56
2017-03-27T18:15:58.160Z,37.88
2017-03-27T18:20:54.900Z,46.30
2017-03-27T18:25:50.964Z,44.86
2017-03-27T18:30:48.349Z,40.34
2017-03-27T18:35:44.424Z,42.07
2017-03-27T18:40:41.046Z,39.20
2017-03-27T18:45:37.643Z,39.77
2017-03-27T18:50:35.773Z,39.77
2017-03-27T18:55:31.795Z,39.67
2017-03-27T19:00:28.771Z,40.82
2017-03-27T19:05:25.184Z,40.89
2017-03-27T19:10:21.507Z,40.15
2017-03-27T19:15:18.412Z,41.56
2017-03-27T19:20:14.791Z,43.95
2017-03-27T19:25:11.659Z,49.59
2017-03-27T19:30:07.973Z,43.86
2017-03-27T19:35:04.402Z,45.75
2017-03-27T19:40:01.258Z,48.13
2017-03-27T19:44:57.643Z,47.85
2017-03-27T19:49:54.303Z,51.86
2017-03-27T19:54:50.860Z,46.13
2017-03-27T19:59:48.173Z,51.67
2017-03-27T20:04:44.653Z,58.54
2017-03-27T20:09:41.277Z,56.82
2017-03-27T20:14:38.495Z,53.67
2017-03-27T20:19:35.122Z,54.22
2017-03-27T20:24:31.537Z,52.31
2017-03-27T20:29:28.274Z,55.08
2017-03-27T20:34:25.669Z,50.59
2017-03-27T20:39:23.129Z,55.08
2017-03-27T20:44:19.431Z,49.44
2017-03-27T20:49:15.800Z,50.18
2017-03-27T20:54:12.792Z,54.29
2017-03-27T20:59:09.338Z,50.95
2017-03-27T21:04:06.173Z,50.47
2017-03-27T21:09:02.553Z,50.85
2017-03-27T21:13:59.076Z,56.67
2017-03-27T21:18:56.302Z,54.67
2017-03-27T21:23:53.758Z,50.95
2017-03-27T21:28:50.407Z,49.13
2017-03-27T21:33:46.757Z,50.28
2017-03-27T21:38:43.457Z,51.14
2017-03-27T21:43:41.378Z,50.09
2017-03-27T21:48:37.539Z,50.18
2017-03-27T21:53:34.673Z,50.67
2017-03-27T21:58:30.923Z,51.68
2017-03-27T22:03:27.502Z,51.59
2017-03-27T22:08:24.122Z,51.78
2017-03-27T22:13:22.868Z,51.21
2017-03-27T22:18:18.719Z,53.21
2017-03-27T22:23:15.123Z,52.92
2017-03-27T22:28:12.803Z,52.64
2017-03-27T22:33:08.866Z,54.17
2017-03-27T22:38:05.641Z,53.88
2017-03-27T22:43:02.266Z,56.17
2017-03-27T22:47:59.592Z,55.79
2017-03-27T22:52:56.111Z,55.60
2017-03-27T22:57:52.414Z,56.36
2017-03-27T23:02:49.098Z,57.28
2017-03-27T23:07:45.510Z,55.38
2017-03-27T23:12:42.070Z,55.00
2017-03-27T23:17:38.654Z,56.04
2017-03-27T23:22:35.491Z,54.80
2017-03-27T23:27:31.934Z,57.00
2017-03-27T23:32:28.315Z,58.52
2017-03-27T23:37:25.194Z,56.87
2017-03-27T23:42:22.626Z,57.45
2017-03-27T23:52:21.929Z,58.75
2017-03-27T23:57:18.326Z,58.37
